Terminal Aerodrome Forecast
Issued by NWS Wakefield, VA

Home | Current Version | Previous Version | Text Only | Print | Product List | Glossary On
Versions: 1 2 3 4 5 6 7 8 9 10 11 12 13
000
FTUS41 KAKQ 201700
TAFECG
TAF
KECG 201740Z 2018/2118 02005KT P6SM -RA BKN040 OVC050
     FM202100 04002KT P6SM BKN100
     FM211500 03008KT P6SM SCT050=

USA.gov is the U.S. government's official web portal to all federal, state and local government web resources and services.